Time,TemperatureF,DewpointF,PressureIn,WindDirection,WindDirectionDegrees,WindSpeedMPH,WindSpeedGustMPH,Humidity,HourlyPrecipIn,Conditions,Clouds,dailyrainin,SoftwareType,DateUTC
2013-01-17 00:05:00,51.2,50.9,29.89,SSE,167,0.0,0.0,99,0.00,,,0.00,Wunderground v.1.15,2013-01-17 05:05:00,
2013-01-17 00:10:00,51.2,50.9,29.88,SSE,167,1.0,1.0,99,0.00,,,0.00,Wunderground v.1.15,2013-01-17 05:10:00,
2013-01-17 00:15:00,51.2,50.9,29.89,SSE,167,1.0,1.0,99,0.00,,,0.00,Wunderground v.1.15,2013-01-17 05:15:00,
2013-01-17 00:20:00,51.2,50.9,29.88,SSE,167,0.0,0.0,99,0.00,,,0.00,Wunderground v.1.15,2013-01-17 05:20:00,
2013-01-17 00:25:00,51.2,50.9,29.88,SSE,167,0.0,0.0,99,0.00,,,0.00,Wunderground v.1.15,2013-01-17 05:25:00,
2013-01-17 00:30:00,51.2,50.9,29.88,SSE,167,0.0,0.0,99,0.00,,,0.00,Wunderground v.1.15,2013-01-17 05:30:00,
2013-01-17 00:35:00,51.2,50.9,29.88,SSE,167,0.0,0.0,99,0.00,,,0.01,Wunderground v.1.15,2013-01-17 05:35:00,
2013-01-17 00:40:00,51.2,50.9,29.88,SSE,167,0.0,0.0,99,0.00,,,0.01,Wunderground v.1.15,2013-01-17 05:40:00,
2013-01-17 00:45:00,51.3,51.0,29.88,SSE,167,0.0,0.0,99,0.00,,,0.01,Wunderground v.1.15,2013-01-17 05:45:00,
2013-01-17 00:50:00,51.3,51.0,29.89,SSE,167,0.0,0.0,99,0.00,,,0.01,Wunderground v.1.15,2013-01-17 05:50:00,
2013-01-17 00:55:00,51.2,50.9,29.89,SSE,167,0.0,0.0,99,0.00,,,0.01,Wunderground v.1.15,2013-01-17 05:55:00,
2013-01-17 01:05:00,51.3,51.0,29.89,SSE,167,0.0,0.0,99,0.11,,,0.03,Wunderground v.1.15,2013-01-17 06:05:00,
2013-01-17 01:10:00,51.3,51.0,29.89,SSE,167,0.0,0.0,99,0.08,,,0.03,Wunderground v.1.15,2013-01-17 06:10:00,
2013-01-17 01:20:00,51.3,51.0,29.88,SSE,167,0.0,0.0,99,0.00,,,0.03,Wunderground v.1.15,2013-01-17 06:20:00,
2013-01-17 01:25:00,51.3,51.0,29.88,SSE,167,0.0,1.0,99,0.00,,,0.03,Wunderground v.1.15,2013-01-17 06:25:00,
2013-01-17 01:30:00,51.2,50.9,29.88,SSE,167,0.0,1.0,99,0.00,,,0.03,Wunderground v.1.15,2013-01-17 06:30:00,
2013-01-17 01:35:00,51.2,50.9,29.88,South,169,0.0,1.0,99,0.00,,,0.04,Wunderground v.1.15,2013-01-17 06:35:00,
2013-01-17 01:40:00,51.2,50.9,29.88,SSW,202,1.0,1.0,99,0.00,,,0.04,Wunderground v.1.15,2013-01-17 06:40:00,
2013-01-17 01:45:00,51.2,50.9,29.88,SSW,206,1.0,1.0,99,0.00,,,0.04,Wunderground v.1.15,2013-01-17 06:45:00,
2013-01-17 01:50:00,51.2,50.9,29.88,SSW,206,1.0,2.0,99,0.00,,,0.04,Wunderground v.1.15,2013-01-17 06:50:00,
2013-01-17 01:55:00,51.1,50.8,29.88,SSW,206,1.0,2.0,99,0.00,,,0.04,Wunderground v.1.15,2013-01-17 06:55:00,
2013-01-17 02:00:00,51.1,50.8,29.88,SSW,206,0.0,0.0,99,0.00,,,0.04,Wunderground v.1.15,2013-01-17 07:00:00,
2013-01-17 02:05:00,51.1,50.8,29.88,SSW,211,0.0,3.0,99,0.00,,,0.04,Wunderground v.1.15,2013-01-17 07:05:00,
2013-01-17 02:10:00,51.0,50.7,29.88,WSW,253,1.0,1.0,99,0.00,,,0.04,Wunderground v.1.15,2013-01-17 07:10:00,
2013-01-17 02:15:00,51.0,50.7,29.88,WSW,254,1.0,1.0,99,0.00,,,0.05,Wunderground v.1.15,2013-01-17 07:15:00,
2013-01-17 02:20:00,51.0,50.7,29.88,WSW,254,1.0,2.0,99,0.00,,,0.05,Wunderground v.1.15,2013-01-17 07:20:00,
2013-01-17 02:25:00,51.0,50.7,29.88,WSW,253,0.0,2.0,99,0.00,,,0.05,Wunderground v.1.15,2013-01-17 07:25:00,
2013-01-17 02:30:00,51.0,50.7,29.87,WSW,254,0.0,0.0,99,0.00,,,0.05,Wunderground v.1.15,2013-01-17 07:30:00,
2013-01-17 02:40:00,50.7,50.4,29.87,WSW,254,0.0,0.0,99,0.00,,,0.05,Wunderground v.1.15,2013-01-17 07:40:00,
2013-01-17 02:45:00,50.5,50.2,29.87,WSW,253,0.0,0.0,99,0.00,,,0.05,Wunderground v.1.15,2013-01-17 07:45:00,
2013-01-17 02:50:00,50.2,49.9,29.87,WSW,253,0.0,0.0,99,0.00,,,0.06,Wunderground v.1.15,2013-01-17 07:50:00,
2013-01-17 02:55:00,49.9,49.4,29.87,WSW,254,0.0,0.0,98,0.00,,,0.06,Wunderground v.1.15,2013-01-17 07:55:00,
2013-01-17 03:00:00,49.7,49.4,29.86,WSW,254,0.0,0.0,99,0.07,,,0.07,Wunderground v.1.15,2013-01-17 08:00:00,
2013-01-17 03:05:00,49.3,48.8,29.86,WSW,253,0.0,0.0,98,0.07,,,0.07,Wunderground v.1.15,2013-01-17 08:05:00,
2013-01-17 03:10:00,49.2,48.7,29.85,WSW,254,0.0,0.0,98,0.05,,,0.07,Wunderground v.1.15,2013-01-17 08:10:00,
2013-01-17 03:15:00,49.1,48.8,29.85,WSW,254,0.0,0.0,99,0.00,,,0.07,Wunderground v.1.15,2013-01-17 08:15:00,
2013-01-17 03:20:00,48.9,48.6,29.86,WSW,254,0.0,0.0,99,0.00,,,0.07,Wunderground v.1.15,2013-01-17 08:20:00,
2013-01-17 03:25:00,48.8,48.3,29.86,WSW,254,0.0,0.0,98,0.00,,,0.08,Wunderground v.1.15,2013-01-17 08:25:00,
2013-01-17 03:30:00,48.8,48.3,29.86,WSW,256,0.0,2.0,98,0.21,,,0.09,Wunderground v.1.15,2013-01-17 08:30:00,
2013-01-17 03:35:00,48.5,48.0,29.86,WSW,257,0.0,2.0,98,0.08,,,0.09,Wunderground v.1.15,2013-01-17 08:35:00,
2013-01-17 03:45:00,48.2,47.7,29.87,WSW,257,0.0,0.0,98,0.00,,,0.09,Wunderground v.1.15,2013-01-17 08:45:00,
2013-01-17 03:50:00,48.1,47.6,29.87,West,270,0.0,0.0,98,0.00,,,0.10,Wunderground v.1.15,2013-01-17 08:50:00,
2013-01-17 03:55:00,47.9,47.4,29.87,West,269,0.0,0.0,98,0.11,,,0.10,Wunderground v.1.15,2013-01-17 08:55:00,
2013-01-17 04:00:00,47.8,47.3,29.86,West,270,0.0,0.0,98,0.11,,,0.11,Wunderground v.1.15,2013-01-17 09:00:00,
2013-01-17 04:05:00,47.6,47.1,29.85,West,270,0.0,0.0,98,0.06,,,0.11,Wunderground v.1.15,2013-01-17 09:05:00,
2013-01-17 04:10:00,47.4,46.9,29.86,West,269,0.0,0.0,98,0.05,,,0.12,Wunderground v.1.15,2013-01-17 09:10:00,
2013-01-17 04:15:00,47.3,46.8,29.86,West,270,0.0,0.0,98,0.05,,,0.12,Wunderground v.1.15,2013-01-17 09:15:00,
2013-01-17 04:20:00,47.2,46.7,29.86,West,269,0.0,0.0,98,0.08,,,0.13,Wunderground v.1.15,2013-01-17 09:20:00,
2013-01-17 04:25:00,47.1,46.6,29.85,West,270,0.0,0.0,98,0.06,,,0.13,Wunderground v.1.15,2013-01-17 09:25:00,
2013-01-17 04:30:00,47.0,46.5,29.85,West,270,0.0,0.0,98,0.04,,,0.13,Wunderground v.1.15,2013-01-17 09:30:00,
2013-01-17 04:35:00,46.9,46.4,29.85,West,270,0.0,0.0,98,0.00,,,0.13,Wunderground v.1.15,2013-01-17 09:35:00,
2013-01-17 04:40:00,46.9,46.4,29.84,West,269,0.0,0.0,98,0.00,,,0.14,Wunderground v.1.15,2013-01-17 09:40:00,
2013-01-17 04:45:00,46.9,46.4,29.83,West,269,0.0,0.0,98,0.00,,,0.14,Wunderground v.1.15,2013-01-17 09:45:00,
2013-01-17 04:50:00,46.9,46.4,29.84,West,270,0.0,0.0,98,0.00,,,0.14,Wunderground v.1.15,2013-01-17 09:50:00,
2013-01-17 04:55:00,47.0,46.5,29.84,West,269,0.0,0.0,98,0.00,,,0.14,Wunderground v.1.15,2013-01-17 09:55:00,
2013-01-17 05:00:00,47.0,46.7,29.83,West,270,0.0,0.0,99,0.00,,,0.15,Wunderground v.1.15,2013-01-17 10:00:00,
2013-01-17 05:05:00,47.0,46.7,29.83,West,270,0.0,0.0,99,0.00,,,0.15,Wunderground v.1.15,2013-01-17 10:05:00,
2013-01-17 05:10:00,47.0,46.7,29.82,West,270,0.0,0.0,99,0.00,,,0.15,Wunderground v.1.15,2013-01-17 10:10:00,
2013-01-17 05:15:00,46.8,46.5,29.82,West,270,0.0,0.0,99,0.00,,,0.15,Wunderground v.1.15,2013-01-17 10:15:00,
2013-01-17 05:20:00,46.8,46.5,29.82,West,270,0.0,0.0,99,0.00,,,0.15,Wunderground v.1.15,2013-01-17 10:20:00,
2013-01-17 05:25:00,46.8,46.5,29.82,West,270,0.0,0.0,99,0.00,,,0.16,Wunderground v.1.15,2013-01-17 10:25:00,
2013-01-17 05:30:00,46.8,46.5,29.82,West,270,0.0,0.0,99,0.00,,,0.16,Wunderground v.1.15,2013-01-17 10:30:00,
2013-01-17 05:35:00,46.8,46.5,29.83,West,270,0.0,0.0,99,0.00,,,0.16,Wunderground v.1.15,2013-01-17 10:35:00,
2013-01-17 05:40:00,46.7,46.4,29.83,West,269,0.0,0.0,99,0.00,,,0.16,Wunderground v.1.15,2013-01-17 10:40:00,
2013-01-17 05:45:00,46.7,46.4,29.82,West,270,0.0,1.0,99,0.00,,,0.16,Wunderground v.1.15,2013-01-17 10:45:00,
2013-01-17 05:50:00,46.7,46.4,29.82,West,269,1.0,1.0,99,0.00,,,0.16,Wunderground v.1.15,2013-01-17 10:50:00,
2013-01-17 05:55:00,46.7,46.4,29.82,West,268,1.0,1.0,99,0.00,,,0.17,Wunderground v.1.15,2013-01-17 10:55:00,
2013-01-17 06:00:00,46.7,46.4,29.81,West,269,0.0,0.0,99,0.00,,,0.17,Wunderground v.1.15,2013-01-17 11:00:00,
2013-01-17 06:05:00,46.8,46.5,29.82,West,269,0.0,0.0,99,0.00,,,0.17,Wunderground v.1.15,2013-01-17 11:05:00,
2013-01-17 06:10:00,46.9,46.6,29.82,West,269,0.0,0.0,99,0.00,,,0.17,Wunderground v.1.15,2013-01-17 11:10:00,
2013-01-17 06:15:00,46.9,46.6,29.82,West,269,0.0,0.0,99,0.00,,,0.17,Wunderground v.1.15,2013-01-17 11:15:00,
2013-01-17 06:20:00,47.0,46.7,29.81,West,268,0.0,0.0,99,0.00,,,0.17,Wunderground v.1.15,2013-01-17 11:20:00,
2013-01-17 06:25:00,47.1,46.8,29.81,West,269,0.0,0.0,99,0.00,,,0.17,Wunderground v.1.15,2013-01-17 11:25:00,
2013-01-17 06:30:00,47.0,46.7,29.81,West,268,0.0,0.0,99,0.00,,,0.17,Wunderground v.1.15,2013-01-17 11:30:00,
2013-01-17 06:40:00,47.0,46.7,29.82,West,269,0.0,0.0,99,0.00,,,0.17,Wunderground v.1.15,2013-01-17 11:40:00,
2013-01-17 06:45:00,47.0,46.7,29.81,West,268,0.0,0.0,99,0.00,,,0.17,Wunderground v.1.15,2013-01-17 11:45:00,
2013-01-17 06:50:00,47.0,46.7,29.81,West,269,0.0,0.0,99,0.00,,,0.17,Wunderground v.1.15,2013-01-17 11:50:00,
2013-01-17 06:55:00,47.0,46.7,29.81,West,268,0.0,0.0,99,0.00,,,0.17,Wunderground v.1.15,2013-01-17 11:55:00,
2013-01-17 07:00:00,47.0,46.7,29.82,West,269,0.0,0.0,99,0.00,,,0.17,Wunderground v.1.15,2013-01-17 12:00:00,
2013-01-17 07:05:00,47.0,46.7,29.81,West,269,0.0,0.0,99,0.00,,,0.17,Wunderground v.1.15,2013-01-17 12:05:00,
2013-01-17 07:10:00,47.0,46.7,29.81,West,269,0.0,0.0,99,0.00,,,0.17,Wunderground v.1.15,2013-01-17 12:10:00,
2013-01-17 07:15:00,47.0,46.7,29.81,West,269,0.0,0.0,99,0.00,,,0.18,Wunderground v.1.15,2013-01-17 12:15:00,
2013-01-17 07:20:00,47.0,46.7,29.81,West,269,0.0,0.0,99,0.00,,,0.18,Wunderground v.1.15,2013-01-17 12:20:00,
2013-01-17 07:25:00,47.0,46.7,29.81,West,269,0.0,0.0,99,0.00,,,0.18,Wunderground v.1.15,2013-01-17 12:25:00,
2013-01-17 07:30:00,47.0,46.7,29.82,West,269,0.0,0.0,99,0.04,,,0.19,Wunderground v.1.15,2013-01-17 12:30:00,
2013-01-17 07:40:00,46.9,46.6,29.82,West,268,0.0,0.0,99,0.04,,,0.19,Wunderground v.1.15,2013-01-17 12:40:00,
2013-01-17 07:45:00,47.0,46.7,29.80,West,269,0.0,0.0,99,0.43,,,0.21,Wunderground v.1.15,2013-01-17 12:45:00,
2013-01-17 07:50:00,47.0,46.7,29.81,West,269,0.0,0.0,99,0.09,,,0.21,Wunderground v.1.15,2013-01-17 12:50:00,
2013-01-17 07:55:00,47.0,46.7,29.81,West,268,0.0,0.0,99,0.05,,,0.21,Wunderground v.1.15,2013-01-17 12:55:00,
2013-01-17 08:00:00,47.0,46.7,29.81,West,269,0.0,0.0,99,0.04,,,0.21,Wunderground v.1.15,2013-01-17 13:00:00,
2013-01-17 08:05:00,46.9,46.6,29.81,West,269,0.0,1.0,99,0.00,,,0.21,Wunderground v.1.15,2013-01-17 13:05:00,
2013-01-17 08:10:00,46.9,46.6,29.81,West,269,0.0,0.0,99,0.00,,,0.21,Wunderground v.1.15,2013-01-17 13:10:00,
2013-01-17 08:15:00,46.7,46.4,29.81,West,269,0.0,0.0,99,0.00,,,0.22,Wunderground v.1.15,2013-01-17 13:15:00,
2013-01-17 08:20:00,46.6,46.3,29.81,West,269,0.0,0.0,99,0.14,,,0.23,Wunderground v.1.15,2013-01-17 13:20:00,
2013-01-17 08:25:00,46.5,46.2,29.80,West,269,0.0,0.0,99,0.07,,,0.23,Wunderground v.1.15,2013-01-17 13:25:00,
2013-01-17 08:30:00,46.6,46.3,29.79,West,269,0.0,1.0,99,0.04,,,0.23,Wunderground v.1.15,2013-01-17 13:30:00,
2013-01-17 08:35:00,46.6,46.3,29.79,West,269,0.0,1.0,99,0.00,,,0.23,Wunderground v.1.15,2013-01-17 13:35:00,
2013-01-17 08:40:00,46.6,46.3,29.78,West,268,0.0,0.0,99,0.00,,,0.23,Wunderground v.1.15,2013-01-17 13:40:00,
2013-01-17 08:45:00,46.7,46.4,29.78,West,269,0.0,0.0,99,0.00,,,0.24,Wunderground v.1.15,2013-01-17 13:45:00,
2013-01-17 08:50:00,46.8,46.5,29.79,West,269,0.0,0.0,99,0.11,,,0.25,Wunderground v.1.15,2013-01-17 13:50:00,
2013-01-17 08:55:00,46.9,46.6,29.80,West,269,0.0,0.0,99,0.40,,,0.27,Wunderground v.1.15,2013-01-17 13:55:00,
2013-01-17 09:00:00,46.9,46.6,29.79,West,268,0.0,0.0,99,0.10,,,0.27,Wunderground v.1.15,2013-01-17 14:00:00,
2013-01-17 09:05:00,47.0,46.7,29.80,West,268,0.0,0.0,99,0.14,,,0.28,Wunderground v.1.15,2013-01-17 14:05:00,
2013-01-17 09:15:00,46.9,46.6,29.79,West,268,0.0,0.0,99,0.06,,,0.29,Wunderground v.1.15,2013-01-17 14:15:00,
2013-01-17 09:20:00,46.8,46.5,29.79,West,268,0.0,0.0,99,0.12,,,0.30,Wunderground v.1.15,2013-01-17 14:20:00,
2013-01-17 09:25:00,46.7,46.4,29.79,West,268,0.0,0.0,99,0.07,,,0.30,Wunderground v.1.15,2013-01-17 14:25:00,
2013-01-17 09:30:00,46.6,46.3,29.79,West,269,0.0,0.0,99,0.04,,,0.30,Wunderground v.1.15,2013-01-17 14:30:00,
2013-01-17 09:35:00,46.5,46.2,29.79,West,268,0.0,0.0,99,0.32,,,0.33,Wunderground v.1.15,2013-01-17 14:35:00,
2013-01-17 09:40:00,46.5,46.2,29.78,West,269,0.0,0.0,99,0.15,,,0.35,Wunderground v.1.15,2013-01-17 14:40:00,
2013-01-17 09:45:00,46.5,46.2,29.77,West,269,0.0,0.0,99,0.13,,,0.36,Wunderground v.1.15,2013-01-17 14:45:00,
2013-01-17 09:50:00,46.4,46.1,29.78,West,268,0.0,0.0,99,0.06,,,0.36,Wunderground v.1.15,2013-01-17 14:50:00,
2013-01-17 09:55:00,46.2,45.9,29.78,West,269,0.0,0.0,99,0.06,,,0.37,Wunderground v.1.15,2013-01-17 14:55:00,
2013-01-17 10:05:00,46.3,46.0,29.76,West,268,0.0,0.0,99,0.13,,,0.39,Wunderground v.1.15,2013-01-17 15:05:00,
2013-01-17 10:10:00,46.3,46.0,29.76,West,268,0.0,0.0,99,0.14,,,0.40,Wunderground v.1.15,2013-01-17 15:10:00,
2013-01-17 10:15:00,46.2,45.9,29.75,West,269,0.0,0.0,99,0.27,,,0.43,Wunderground v.1.15,2013-01-17 15:15:00,
2013-01-17 10:20:00,46.2,45.9,29.76,West,268,0.0,0.0,99,0.15,,,0.44,Wunderground v.1.15,2013-01-17 15:20:00,
2013-01-17 10:25:00,46.1,45.8,29.77,West,268,0.0,0.0,99,0.09,,,0.45,Wunderground v.1.15,2013-01-17 15:25:00,
2013-01-17 10:30:00,45.9,45.6,29.76,West,269,0.0,0.0,99,0.42,,,0.49,Wunderground v.1.15,2013-01-17 15:30:00,
2013-01-17 10:35:00,45.8,45.5,29.76,West,269,0.0,0.0,99,0.51,,,0.52,Wunderground v.1.15,2013-01-17 15:35:00,
2013-01-17 10:40:00,45.6,45.3,29.77,West,274,0.0,0.0,99,0.85,,,0.56,Wunderground v.1.15,2013-01-17 15:40:00,
2013-01-17 10:50:00,45.0,44.7,29.77,West,273,0.0,0.0,99,0.38,,,0.62,Wunderground v.1.15,2013-01-17 15:50:00,
2013-01-17 10:55:00,44.7,44.2,29.77,West,273,0.0,0.0,98,0.26,,,0.64,Wunderground v.1.15,2013-01-17 15:55:00,
2013-01-17 11:00:00,44.5,44.0,29.77,West,273,0.0,0.0,98,0.25,,,0.67,Wunderground v.1.15,2013-01-17 16:00:00,
2013-01-17 11:05:00,44.3,44.0,29.77,West,273,0.0,0.0,99,0.51,,,0.70,Wunderground v.1.15,2013-01-17 16:05:00,
2013-01-17 11:10:00,44.3,44.0,29.76,West,273,0.0,0.0,99,0.43,,,0.71,Wunderground v.1.15,2013-01-17 16:10:00,
2013-01-17 11:15:00,44.3,44.0,29.76,West,273,0.0,0.0,99,0.46,,,0.74,Wunderground v.1.15,2013-01-17 16:15:00,
2013-01-17 11:20:00,44.2,43.7,29.76,West,273,0.0,0.0,98,0.21,,,0.76,Wunderground v.1.15,2013-01-17 16:20:00,
2013-01-17 11:25:00,44.1,43.6,29.76,West,273,0.0,0.0,98,0.19,,,0.78,Wunderground v.1.15,2013-01-17 16:25:00,
2013-01-17 11:30:00,44.0,43.5,29.76,West,273,0.0,0.0,98,0.30,,,0.81,Wunderground v.1.15,2013-01-17 16:30:00,
2013-01-17 11:35:00,44.0,43.5,29.76,West,273,0.0,0.0,98,0.24,,,0.84,Wunderground v.1.15,2013-01-17 16:35:00,
2013-01-17 11:40:00,44.0,43.5,29.75,West,269,0.0,0.0,98,0.44,,,0.86,Wunderground v.1.15,2013-01-17 16:40:00,
2013-01-17 11:45:00,44.0,43.7,29.74,West,270,0.0,0.0,99,0.22,,,0.89,Wunderground v.1.15,2013-01-17 16:45:00,
2013-01-17 11:50:00,44.0,43.7,29.74,West,269,0.0,0.0,99,0.16,,,0.90,Wunderground v.1.15,2013-01-17 16:50:00,
2013-01-17 11:55:00,44.2,43.9,29.74,West,270,0.0,0.0,99,0.09,,,0.91,Wunderground v.1.15,2013-01-17 16:55:00,
2013-01-17 12:00:00,44.1,43.8,29.75,West,271,0.0,0.0,99,0.10,,,0.92,Wunderground v.1.15,2013-01-17 17:00:00,
2013-01-17 12:05:00,44.0,43.7,29.75,West,261,0.0,0.0,99,0.10,,,0.92,Wunderground v.1.15,2013-01-17 17:05:00,
2013-01-17 12:10:00,43.9,43.6,29.74,West,261,0.0,0.0,99,0.23,,,0.94,Wunderground v.1.15,2013-01-17 17:10:00,
2013-01-17 12:20:00,43.9,43.6,29.73,West,261,0.0,0.0,99,0.13,,,0.99,Wunderground v.1.15,2013-01-17 17:20:00,
2013-01-17 12:25:00,43.7,43.4,29.73,SW,223,1.0,2.0,99,0.11,,,1.00,Wunderground v.1.15,2013-01-17 17:25:00,
2013-01-17 12:30:00,43.7,43.4,29.73,SSW,209,1.0,1.0,99,0.10,,,1.01,Wunderground v.1.15,2013-01-17 17:30:00,
2013-01-17 12:35:00,43.7,43.4,29.72,SSW,209,1.0,1.0,99,0.13,,,1.02,Wunderground v.1.15,2013-01-17 17:35:00,
2013-01-17 12:40:00,43.8,43.5,29.71,SSW,209,0.0,1.0,99,0.06,,,1.02,Wunderground v.1.15,2013-01-17 17:40:00,
2013-01-17 12:45:00,44.1,43.8,29.70,SSW,209,0.0,1.0,99,0.05,,,1.03,Wunderground v.1.15,2013-01-17 17:45:00,
2013-01-17 12:50:00,44.1,43.8,29.69,SSW,209,0.0,2.0,99,0.13,,,1.04,Wunderground v.1.15,2013-01-17 17:50:00,
2013-01-17 12:55:00,44.1,43.8,29.69,South,180,1.0,2.0,99,0.11,,,1.05,Wunderground v.1.15,2013-01-17 17:55:00,
2013-01-17 13:00:00,44.2,43.9,29.68,South,179,2.0,2.0,99,0.16,,,1.06,Wunderground v.1.15,2013-01-17 18:00:00,
2013-01-17 13:05:00,44.3,44.0,29.68,South,179,1.0,3.0,99,0.08,,,1.07,Wunderground v.1.15,2013-01-17 18:05:00,
2013-01-17 13:10:00,44.3,44.0,29.67,SE,132,2.0,2.0,99,0.13,,,1.08,Wunderground v.1.15,2013-01-17 18:10:00,
2013-01-17 13:15:00,44.4,44.1,29.66,SE,132,2.0,2.0,99,0.11,,,1.08,Wunderground v.1.15,2013-01-17 18:15:00,
2013-01-17 13:20:00,44.6,44.3,29.64,SE,132,0.0,2.0,99,0.07,,,1.09,Wunderground v.1.15,2013-01-17 18:20:00,
2013-01-17 13:25:00,44.9,44.6,29.63,SE,133,1.0,2.0,99,0.17,,,1.10,Wunderground v.1.15,2013-01-17 18:25:00,
2013-01-17 13:30:00,45.0,44.7,29.61,SE,133,1.0,1.0,99,0.07,,,1.10,Wunderground v.1.15,2013-01-17 18:30:00,
2013-01-17 13:35:00,45.5,45.2,29.62,SSE,156,1.0,2.0,99,0.04,,,1.10,Wunderground v.1.15,2013-01-17 18:35:00,
2013-01-17 13:40:00,46.1,45.8,29.61,SSE,159,1.0,1.0,99,0.04,,,1.11,Wunderground v.1.15,2013-01-17 18:40:00,
2013-01-17 13:45:00,47.2,46.9,29.61,East,93,1.0,1.0,99,0.04,,,1.11,Wunderground v.1.15,2013-01-17 18:45:00,
2013-01-17 13:50:00,48.6,48.3,29.61,ESE,113,2.0,3.0,99,0.04,,,1.11,Wunderground v.1.15,2013-01-17 18:50:00,
2013-01-17 13:55:00,49.2,48.9,29.60,ESE,114,2.0,3.0,99,0.00,,,1.11,Wunderground v.1.15,2013-01-17 18:55:00,
2013-01-17 14:00:00,50.1,49.8,29.59,ESE,115,1.0,1.0,99,0.00,,,1.11,Wunderground v.1.15,2013-01-17 19:00:00,
2013-01-17 14:05:00,50.5,50.2,29.59,ESE,115,1.0,1.0,99,0.00,,,1.11,Wunderground v.1.15,2013-01-17 19:05:00,
2013-01-17 14:10:00,50.3,50.0,29.59,ESE,115,0.0,0.0,99,0.00,,,1.11,Wunderground v.1.15,2013-01-17 19:10:00,
2013-01-17 14:15:00,50.3,50.0,29.59,ESE,115,0.0,0.0,99,0.00,,,1.11,Wunderground v.1.15,2013-01-17 19:15:00,
2013-01-17 14:20:00,50.6,50.3,29.60,ESE,115,0.0,0.0,99,0.00,,,1.11,Wunderground v.1.15,2013-01-17 19:20:00,
2013-01-17 14:25:00,50.7,50.4,29.59,ESE,115,0.0,0.0,99,0.00,,,1.11,Wunderground v.1.15,2013-01-17 19:25:00,
2013-01-17 14:30:00,50.8,50.5,29.58,ESE,115,0.0,0.0,99,0.00,,,1.11,Wunderground v.1.15,2013-01-17 19:30:00,
2013-01-17 14:35:00,50.9,50.6,29.59,ESE,115,1.0,1.0,99,0.00,,,1.11,Wunderground v.1.15,2013-01-17 19:35:00,
2013-01-17 14:40:00,50.9,50.6,29.59,ESE,115,1.0,1.0,99,0.00,,,1.11,Wunderground v.1.15,2013-01-17 19:40:00,
2013-01-17 14:45:00,51.1,50.8,29.59,ESE,115,0.0,5.0,99,0.00,,,1.11,Wunderground v.1.15,2013-01-17 19:45:00,
2013-01-17 14:50:00,51.1,50.8,29.58,SSW,211,3.0,3.0,99,0.00,,,1.11,Wunderground v.1.15,2013-01-17 19:50:00,
2013-01-17 14:55:00,50.8,50.5,29.58,ESE,110,5.0,7.0,99,0.64,,,1.14,Wunderground v.1.15,2013-01-17 19:55:00,
2013-01-17 15:00:00,50.5,50.2,29.58,ESE,122,8.0,8.0,99,0.10,,,1.14,Wunderground v.1.15,2013-01-17 20:00:00,
2013-01-17 15:05:00,50.5,50.2,29.58,ESE,109,9.0,13.0,99,0.09,,,1.15,Wunderground v.1.15,2013-01-17 20:05:00,
2013-01-17 15:10:00,50.6,50.1,29.59,ESE,115,8.0,8.0,98,0.07,,,1.16,Wunderground v.1.15,2013-01-17 20:10:00,
2013-01-17 15:15:00,50.5,49.4,29.60,ESE,120,7.0,8.0,96,0.07,,,1.16,Wunderground v.1.15,2013-01-17 20:15:00,
2013-01-17 15:20:00,50.4,49.0,29.61,ESE,109,5.0,10.0,95,0.06,,,1.16,Wunderground v.1.15,2013-01-17 20:20:00,
2013-01-17 15:25:00,49.4,47.7,29.64,West,278,4.0,10.0,94,0.40,,,1.18,Wunderground v.1.15,2013-01-17 20:25:00,
2013-01-17 15:30:00,47.1,44.6,29.67,NNW,327,5.0,7.0,91,0.49,,,1.22,Wunderground v.1.15,2013-01-17 20:30:00,
2013-01-17 15:40:00,43.7,41.5,29.70,West,266,2.0,2.0,92,0.49,,,1.26,Wunderground v.1.15,2013-01-17 20:40:00,
2013-01-17 15:45:00,42.7,40.8,29.70,West,265,1.0,2.0,93,0.36,,,1.28,Wunderground v.1.15,2013-01-17 20:45:00,
2013-01-17 15:50:00,42.3,40.7,29.69,West,266,0.0,0.0,94,0.35,,,1.30,Wunderground v.1.15,2013-01-17 20:50:00,
2013-01-17 15:55:00,42.1,40.8,29.70,West,266,0.0,0.0,95,0.10,,,1.31,Wunderground v.1.15,2013-01-17 20:55:00,
2013-01-17 16:00:00,41.9,40.8,29.70,West,266,0.0,0.0,96,0.18,,,1.32,Wunderground v.1.15,2013-01-17 21:00:00,
2013-01-17 16:05:00,41.7,40.6,29.70,West,266,0.0,0.0,96,0.08,,,1.32,Wunderground v.1.15,2013-01-17 21:05:00,
2013-01-17 16:10:00,41.6,40.5,29.68,West,266,0.0,0.0,96,0.05,,,1.32,Wunderground v.1.15,2013-01-17 21:10:00,
2013-01-17 16:15:00,41.5,40.4,29.68,West,265,0.0,1.0,96,0.04,,,1.32,Wunderground v.1.15,2013-01-17 21:15:00,
2013-01-17 16:20:00,41.1,40.0,29.67,West,265,0.0,0.0,96,0.00,,,1.32,Wunderground v.1.15,2013-01-17 21:20:00,
2013-01-17 16:25:00,41.0,39.9,29.67,West,265,0.0,0.0,96,0.00,,,1.32,Wunderground v.1.15,2013-01-17 21:25:00,
2013-01-17 16:30:00,41.1,40.3,29.70,West,265,0.0,0.0,97,0.00,,,1.32,Wunderground v.1.15,2013-01-17 21:30:00,
2013-01-17 16:35:00,41.1,40.3,29.70,West,265,0.0,0.0,97,0.00,,,1.32,Wunderground v.1.15,2013-01-17 21:35:00,
2013-01-17 16:40:00,41.1,40.3,29.71,West,265,0.0,0.0,97,0.00,,,1.32,Wunderground v.1.15,2013-01-17 21:40:00,
2013-01-17 16:45:00,40.9,39.8,29.71,West,265,0.0,0.0,96,0.00,,,1.32,Wunderground v.1.15,2013-01-17 21:45:00,
2013-01-17 16:55:00,40.5,39.7,29.73,West,265,0.0,0.0,97,0.00,,,1.32,Wunderground v.1.15,2013-01-17 21:55:00,
2013-01-17 17:00:00,40.3,39.3,29.73,West,265,0.0,0.0,96,0.00,,,1.33,Wunderground v.1.15,2013-01-17 22:00:00,
2013-01-17 17:05:00,40.1,39.1,29.74,West,265,0.0,0.0,96,0.11,,,1.34,Wunderground v.1.15,2013-01-17 22:05:00,
2013-01-17 17:10:00,40.1,39.3,29.75,West,265,0.0,0.0,97,0.09,,,1.34,Wunderground v.1.15,2013-01-17 22:10:00,
2013-01-17 17:15:00,40.0,39.2,29.76,West,265,0.0,0.0,97,0.05,,,1.34,Wunderground v.1.15,2013-01-17 22:15:00,
2013-01-17 17:20:00,39.9,39.1,29.77,West,265,0.0,0.0,97,0.04,,,1.34,Wunderground v.1.15,2013-01-17 22:20:00,
2013-01-17 17:25:00,39.8,39.0,29.78,West,265,0.0,0.0,97,0.00,,,1.35,Wunderground v.1.15,2013-01-17 22:25:00,
2013-01-17 17:30:00,39.6,38.8,29.78,West,265,0.0,0.0,97,0.00,,,1.35,Wunderground v.1.15,2013-01-17 22:30:00,
2013-01-17 17:35:00,39.5,38.7,29.79,West,265,0.0,0.0,97,0.00,,,1.35,Wunderground v.1.15,2013-01-17 22:35:00,
2013-01-17 17:40:00,39.5,38.7,29.80,West,265,0.0,0.0,97,0.04,,,1.36,Wunderground v.1.15,2013-01-17 22:40:00,
2013-01-17 17:45:00,39.5,38.7,29.81,West,265,0.0,0.0,97,0.08,,,1.37,Wunderground v.1.15,2013-01-17 22:45:00,
2013-01-17 17:50:00,39.5,38.7,29.82,West,265,0.0,0.0,97,0.15,,,1.38,Wunderground v.1.15,2013-01-17 22:50:00,
2013-01-17 17:55:00,39.4,38.6,29.83,West,265,0.0,0.0,97,0.09,,,1.39,Wunderground v.1.15,2013-01-17 22:55:00,
2013-01-17 18:00:00,39.2,38.4,29.83,West,265,0.0,0.0,97,0.13,,,1.40,Wunderground v.1.15,2013-01-17 23:00:00,
2013-01-17 18:05:00,39.1,38.3,29.84,West,265,0.0,0.0,97,0.08,,,1.41,Wunderground v.1.15,2013-01-17 23:05:00,
2013-01-17 18:10:00,39.1,38.3,29.85,West,265,0.0,0.0,97,0.14,,,1.42,Wunderground v.1.15,2013-01-17 23:10:00,
2013-01-17 18:15:00,39.0,38.2,29.86,West,265,0.0,0.0,97,0.08,,,1.42,Wunderground v.1.15,2013-01-17 23:15:00,
2013-01-17 18:20:00,38.9,38.1,29.87,West,265,0.0,0.0,97,0.28,,,1.44,Wunderground v.1.15,2013-01-17 23:20:00,
2013-01-17 18:25:00,38.8,38.0,29.88,West,265,0.0,0.0,97,0.12,,,1.45,Wunderground v.1.15,2013-01-17 23:25:00,
2013-01-17 18:30:00,38.7,37.9,29.89,West,265,0.0,0.0,97,0.13,,,1.46,Wunderground v.1.15,2013-01-17 23:30:00,
2013-01-17 18:35:00,38.7,37.9,29.90,West,265,0.0,0.0,97,0.06,,,1.46,Wunderground v.1.15,2013-01-17 23:35:00,
2013-01-17 18:40:00,38.7,38.2,29.91,West,265,0.0,1.0,98,0.05,,,1.47,Wunderground v.1.15,2013-01-17 23:40:00,
2013-01-17 18:45:00,38.7,37.9,29.92,West,265,0.0,1.0,97,0.05,,,1.47,Wunderground v.1.15,2013-01-17 23:45:00,
2013-01-17 18:50:00,38.8,38.3,29.93,SSW,213,0.0,0.0,98,0.05,,,1.47,Wunderground v.1.15,2013-01-17 23:50:00,
2013-01-17 18:55:00,38.8,38.3,29.93,SSW,213,0.0,0.0,98,0.04,,,1.48,Wunderground v.1.15,2013-01-17 23:55:00,
2013-01-17 19:00:00,38.9,38.4,29.94,SSW,213,0.0,0.0,98,0.04,,,1.48,Wunderground v.1.15,2013-01-18 00:00:00,
2013-01-17 19:05:00,39.0,38.5,29.93,SSW,213,0.0,0.0,98,0.04,,,1.48,Wunderground v.1.15,2013-01-18 00:05:00,
2013-01-17 19:10:00,39.1,38.6,29.94,SSW,213,0.0,1.0,98,0.00,,,1.48,Wunderground v.1.15,2013-01-18 00:10:00,
2013-01-17 19:15:00,39.2,38.7,29.95,SSW,213,0.0,1.0,98,0.00,,,1.48,Wunderground v.1.15,2013-01-18 00:15:00,
2013-01-17 19:20:00,39.3,38.8,29.96,SSW,213,0.0,0.0,98,0.00,,,1.48,Wunderground v.1.15,2013-01-18 00:20:00,
2013-01-17 19:25:00,39.2,38.7,29.97,SSW,213,0.0,0.0,98,0.00,,,1.48,Wunderground v.1.15,2013-01-18 00:25:00,
2013-01-17 19:30:00,39.3,38.8,29.97,SSW,213,0.0,0.0,98,0.00,,,1.48,Wunderground v.1.15,2013-01-18 00:30:00,
2013-01-17 19:35:00,39.3,38.8,29.98,SSW,213,0.0,0.0,98,0.00,,,1.48,Wunderground v.1.15,2013-01-18 00:35:00,
2013-01-17 19:40:00,39.3,38.8,29.98,SSW,213,0.0,0.0,98,0.00,,,1.48,Wunderground v.1.15,2013-01-18 00:40:00,
2013-01-17 19:45:00,39.2,38.7,29.99,SSW,213,0.0,0.0,98,0.00,,,1.48,Wunderground v.1.15,2013-01-18 00:45:00,
2013-01-17 19:50:00,39.1,38.6,29.99,SSW,213,0.0,0.0,98,0.00,,,1.48,Wunderground v.1.15,2013-01-18 00:50:00,
2013-01-17 19:55:00,39.1,38.6,30.00,SSW,213,0.0,0.0,98,0.00,,,1.48,Wunderground v.1.15,2013-01-18 00:55:00,
2013-01-17 20:05:00,37.9,37.1,30.01,NW,309,1.0,1.0,97,0.00,,,1.48,Wunderground v.1.15,2013-01-18 01:05:00,
2013-01-17 20:10:00,36.9,35.9,30.02,NW,313,2.0,2.0,96,0.00,,,1.48,Wunderground v.1.15,2013-01-18 01:10:00,
2013-01-17 20:15:00,36.0,35.0,30.02,WNW,303,1.0,2.0,96,0.00,,,1.48,Wunderground v.1.15,2013-01-18 01:15:00,
2013-01-17 20:20:00,35.5,34.5,30.02,NNW,345,1.0,1.0,96,0.00,,,1.48,Wunderground v.1.15,2013-01-18 01:20:00,
2013-01-17 20:25:00,35.0,34.0,30.03,West,279,0.0,1.0,96,0.00,,,1.48,Wunderground v.1.15,2013-01-18 01:25:00,
2013-01-17 20:30:00,34.6,33.8,30.04,West,269,0.0,1.0,97,0.00,,,1.48,Wunderground v.1.15,2013-01-18 01:30:00,
2013-01-17 20:35:00,34.4,33.6,30.05,NW,306,0.0,1.0,97,0.00,,,1.48,Wunderground v.1.15,2013-01-18 01:35:00,
2013-01-17 20:40:00,34.0,33.0,30.05,NNE,29,0.0,0.0,96,0.00,,,1.48,Wunderground v.1.15,2013-01-18 01:40:00,
2013-01-17 20:45:00,33.7,32.9,30.06,NNE,29,0.0,0.0,97,0.00,,,1.48,Wunderground v.1.15,2013-01-18 01:45:00,
2013-01-17 20:50:00,33.5,32.5,30.06,NNE,29,0.0,1.0,96,0.00,,,1.48,Wunderground v.1.15,2013-01-18 01:50:00,
2013-01-17 20:55:00,33.3,32.5,30.06,WSW,242,0.0,1.0,97,0.00,,,1.48,Wunderground v.1.15,2013-01-18 01:55:00,
2013-01-17 21:00:00,33.1,32.3,30.06,WSW,242,0.0,0.0,97,0.00,,,1.48,Wunderground v.1.15,2013-01-18 02:00:00,
2013-01-17 21:05:00,32.9,32.1,30.06,SSW,200,0.0,2.0,97,0.00,,,1.48,Wunderground v.1.15,2013-01-18 02:05:00,
2013-01-17 21:10:00,32.9,32.1,30.07,SSW,201,0.0,0.0,97,0.00,,,1.48,Wunderground v.1.15,2013-01-18 02:10:00,
2013-01-17 21:15:00,32.8,32.0,30.08,SSW,200,0.0,0.0,97,0.00,,,1.48,Wunderground v.1.15,2013-01-18 02:15:00,
2013-01-17 21:20:00,32.6,31.8,30.08,SE,139,0.0,0.0,97,0.00,,,1.48,Wunderground v.1.15,2013-01-18 02:20:00,
2013-01-17 21:25:00,32.5,31.7,30.08,SE,138,0.0,0.0,97,0.00,,,1.48,Wunderground v.1.15,2013-01-18 02:25:00,
2013-01-17 21:30:00,32.4,31.6,30.08,SE,139,0.0,0.0,97,0.00,,,1.48,Wunderground v.1.15,2013-01-18 02:30:00,
2013-01-17 21:35:00,32.3,31.5,30.09,SE,139,0.0,0.0,97,0.00,,,1.48,Wunderground v.1.15,2013-01-18 02:35:00,
2013-01-17 21:40:00,32.0,31.2,30.11,SE,139,0.0,0.0,97,0.00,,,1.48,Wunderground v.1.15,2013-01-18 02:40:00,
2013-01-17 21:45:00,31.7,30.9,30.12,SE,142,0.0,0.0,97,0.00,,,1.48,Wunderground v.1.15,2013-01-18 02:45:00,
2013-01-17 21:50:00,31.5,30.7,30.12,SE,143,0.0,0.0,97,0.00,,,1.48,Wunderground v.1.15,2013-01-18 02:50:00,
2013-01-17 21:55:00,31.4,30.6,30.12,SE,143,0.0,0.0,97,0.00,,,1.48,Wunderground v.1.15,2013-01-18 02:55:00,
2013-01-17 22:00:00,31.3,30.5,30.11,SE,143,0.0,0.0,97,0.00,,,1.48,Wunderground v.1.15,2013-01-18 03:00:00,
2013-01-17 22:05:00,31.1,30.3,30.12,SE,143,0.0,0.0,97,0.00,,,1.48,Wunderground v.1.15,2013-01-18 03:05:00,
2013-01-17 22:10:00,31.0,30.2,30.12,SE,143,0.0,0.0,97,0.00,,,1.48,Wunderground v.1.15,2013-01-18 03:10:00,
2013-01-17 22:15:00,30.9,30.1,30.12,SE,143,0.0,0.0,97,0.00,,,1.48,Wunderground v.1.15,2013-01-18 03:15:00,
2013-01-17 22:20:00,30.9,30.1,30.13,SE,142,0.0,0.0,97,0.00,,,1.48,Wunderground v.1.15,2013-01-18 03:20:00,
2013-01-17 22:25:00,30.8,30.0,30.14,SE,142,0.0,0.0,97,0.00,,,1.48,Wunderground v.1.15,2013-01-18 03:25:00,
2013-01-17 22:30:00,30.8,30.0,30.14,SE,142,0.0,0.0,97,0.00,,,1.48,Wunderground v.1.15,2013-01-18 03:30:00,
2013-01-17 22:35:00,30.7,30.0,30.14,SE,143,0.0,0.0,97,0.00,,,1.48,Wunderground v.1.15,2013-01-18 03:35:00,
2013-01-17 22:40:00,30.7,30.0,30.14,SE,143,0.0,0.0,97,0.00,,,1.48,Wunderground v.1.15,2013-01-18 03:40:00,
2013-01-17 22:45:00,30.6,29.9,30.14,SE,143,0.0,0.0,97,0.00,,,1.48,Wunderground v.1.15,2013-01-18 03:45:00,
2013-01-17 22:50:00,30.6,29.9,30.14,SE,142,0.0,0.0,97,0.00,,,1.48,Wunderground v.1.15,2013-01-18 03:50:00,
2013-01-17 22:55:00,30.6,29.9,30.15,SE,143,0.0,0.0,97,0.00,,,1.48,Wunderground v.1.15,2013-01-18 03:55:00,
2013-01-17 23:00:00,30.6,29.9,30.15,SE,143,0.0,0.0,97,0.00,,,1.48,Wunderground v.1.15,2013-01-18 04:00:00,
2013-01-17 23:05:00,30.5,29.8,30.16,SE,143,0.0,0.0,97,0.00,,,1.48,Wunderground v.1.15,2013-01-18 04:05:00,
2013-01-17 23:10:00,30.5,29.8,30.17,SE,143,0.0,0.0,97,0.00,,,1.48,Wunderground v.1.15,2013-01-18 04:10:00,
2013-01-17 23:15:00,30.5,29.8,30.17,SE,142,0.0,0.0,97,0.00,,,1.48,Wunderground v.1.15,2013-01-18 04:15:00,
2013-01-17 23:20:00,30.5,29.8,30.17,SE,143,0.0,0.0,97,0.00,,,1.48,Wunderground v.1.15,2013-01-18 04:20:00,
2013-01-17 23:30:00,30.4,29.7,30.18,SE,142,0.0,0.0,97,0.00,,,1.48,Wunderground v.1.15,2013-01-18 04:30:00,
2013-01-17 23:35:00,30.3,29.6,30.18,SE,142,0.0,0.0,97,0.00,,,1.48,Wunderground v.1.15,2013-01-18 04:35:00,
2013-01-17 23:40:00,30.3,29.6,30.19,SE,143,0.0,0.0,97,0.00,,,1.48,Wunderground v.1.15,2013-01-18 04:40:00,
2013-01-17 23:45:00,30.2,29.5,30.19,SE,143,0.0,0.0,97,0.00,,,1.48,Wunderground v.1.15,2013-01-18 04:45:00,
2013-01-17 23:50:00,30.1,29.4,30.19,SE,143,0.0,0.0,97,0.00,,,1.48,Wunderground v.1.15,2013-01-18 04:50:00,
2013-01-17 23:55:00,30.1,29.4,30.19,SE,142,0.0,0.0,97,0.00,,,1.48,Wunderground v.1.15,2013-01-18 04:55:00,